createdAt,value
2022-07-29T00:02:02.304Z,18.50
2022-07-29T00:04:49.158Z,18.40
2022-07-29T00:07:36.846Z,18.30
2022-07-29T00:10:24.073Z,18.30
2022-07-29T00:13:11.132Z,18.30
2022-07-29T00:15:58.041Z,18.40
2022-07-29T00:18:50.637Z,18.40
2022-07-29T00:21:37.479Z,18.40
2022-07-29T00:24:24.390Z,18.40
2022-07-29T00:27:11.155Z,18.40
2022-07-29T00:29:57.997Z,18.20
2022-07-29T00:32:44.872Z,18.10
2022-07-29T00:35:47.100Z,18.00
2022-07-29T00:38:33.900Z,17.90
2022-07-29T00:41:21.726Z,17.90
2022-07-29T00:44:08.449Z,17.80
2022-07-29T00:46:55.556Z,17.80
2022-07-29T00:49:43.128Z,17.80
2022-07-29T00:52:29.962Z,17.80
2022-07-29T00:55:17.384Z,17.80
2022-07-29T00:58:04.780Z,17.80
2022-07-29T01:00:51.857Z,17.80
2022-07-29T01:03:38.797Z,17.90
2022-07-29T01:06:26.205Z,17.80
2022-07-29T01:09:14.045Z,17.90
2022-07-29T01:12:02.252Z,17.90
2022-07-29T01:14:50.449Z,17.80
2022-07-29T01:17:40.031Z,17.70
2022-07-29T01:20:52.061Z,17.70
2022-07-29T01:23:56.741Z,17.60
2022-07-29T01:26:48.239Z,17.60
2022-07-29T01:29:44.831Z,17.60
2022-07-29T01:32:38.178Z,17.60
2022-07-29T01:35:29.651Z,17.50
2022-07-29T01:38:24.252Z,17.50
2022-07-29T01:41:16.269Z,17.60
2022-07-29T01:44:12.843Z,17.60
2022-07-29T01:47:07.145Z,17.50
2022-07-29T01:49:57.744Z,17.50
2022-07-29T01:52:58.070Z,17.30
2022-07-29T01:55:47.043Z,17.20
2022-07-29T01:58:36.723Z,17.10
2022-07-29T02:01:25.260Z,17.00
2022-07-29T02:04:13.609Z,17.00
2022-07-29T02:07:22.767Z,17.00
2022-07-29T02:10:11.734Z,16.90
2022-07-29T02:12:59.384Z,16.90
2022-07-29T02:15:47.423Z,16.90
2022-07-29T02:18:36.989Z,16.90
2022-07-29T02:21:26.263Z,16.90
2022-07-29T02:24:15.124Z,16.90
2022-07-29T02:27:03.267Z,16.90
2022-07-29T02:29:51.866Z,16.80
2022-07-29T02:32:42.570Z,16.80
2022-07-29T02:35:34.936Z,16.80
2022-07-29T02:38:44.785Z,16.80
2022-07-29T02:41:38.273Z,16.90
2022-07-29T02:44:29.035Z,17.00
2022-07-29T02:47:28.534Z,17.00
2022-07-29T02:50:45.370Z,17.00
2022-07-29T02:53:35.474Z,16.90
2022-07-29T02:56:29.273Z,16.90
2022-07-29T02:59:22.916Z,16.80
2022-07-29T03:02:10.819Z,16.80
2022-07-29T03:04:59.907Z,16.90
2022-07-29T03:07:53.787Z,17.00
2022-07-29T03:10:44.852Z,17.00
2022-07-29T03:13:31.995Z,17.00
2022-07-29T03:16:21.154Z,17.10
2022-07-29T03:19:08.256Z,17.20
2022-07-29T03:21:58.178Z,17.20
2022-07-29T03:24:44.942Z,17.10
2022-07-29T03:27:35.040Z,17.10
2022-07-29T03:30:22.559Z,17.00
2022-07-29T03:33:13.496Z,16.90
2022-07-29T03:36:02.946Z,16.90
2022-07-29T03:38:50.382Z,16.90
2022-07-29T03:41:39.449Z,16.80
2022-07-29T03:44:28.479Z,16.80
2022-07-29T03:47:18.087Z,16.80
2022-07-29T03:50:10.834Z,16.80
2022-07-29T03:52:58.126Z,16.80
2022-07-29T03:55:49.334Z,16.80
2022-07-29T03:58:36.193Z,17.00
2022-07-29T04:01:24.878Z,17.10
2022-07-29T04:04:11.838Z,17.10
2022-07-29T04:06:58.654Z,17.10
2022-07-29T04:09:45.692Z,17.20
2022-07-29T04:12:32.513Z,17.10
2022-07-29T04:15:19.503Z,16.90
2022-07-29T04:18:07.042Z,16.90
2022-07-29T04:20:53.952Z,16.80
2022-07-29T04:23:53.154Z,16.80
2022-07-29T04:26:40.892Z,16.70
2022-07-29T04:29:27.713Z,16.70
2022-07-29T04:32:14.569Z,16.80
2022-07-29T04:35:01.462Z,16.90
2022-07-29T04:37:49.362Z,16.90
2022-07-29T04:40:36.197Z,16.90
2022-07-29T04:43:25.529Z,17.00
2022-07-29T04:46:13.848Z,17.00
2022-07-29T04:49:00.773Z,17.10
2022-07-29T04:51:47.713Z,17.20
2022-07-29T04:54:34.573Z,17.20
2022-07-29T04:57:21.517Z,17.20
2022-07-29T05:00:09.441Z,17.10
2022-07-29T05:02:56.219Z,17.00
2022-07-29T05:05:43.388Z,16.90
2022-07-29T05:08:30.221Z,16.70
2022-07-29T05:11:21.327Z,16.70
2022-07-29T05:14:09.413Z,16.70
2022-07-29T05:16:58.037Z,16.70
2022-07-29T05:19:45.336Z,16.90
2022-07-29T05:22:32.157Z,17.10
2022-07-29T05:25:19.115Z,17.30
2022-07-29T05:28:05.920Z,17.60
2022-07-29T05:30:52.815Z,17.70
2022-07-29T05:33:39.614Z,17.90
2022-07-29T05:36:26.758Z,17.90
2022-07-29T05:39:14.180Z,17.90
2022-07-29T05:42:00.974Z,17.80
2022-07-29T05:44:48.500Z,17.90
2022-07-29T05:47:35.604Z,17.90
2022-07-29T05:50:22.397Z,17.90
2022-07-29T05:53:19.723Z,17.90
2022-07-29T05:56:08.299Z,18.00
2022-07-29T05:58:55.154Z,18.00
2022-07-29T06:01:42.711Z,18.10
2022-07-29T06:04:30.266Z,18.00
2022-07-29T06:07:17.303Z,18.10
2022-07-29T06:10:04.480Z,18.10
2022-07-29T06:12:51.413Z,18.30
2022-07-29T06:15:38.843Z,18.30
2022-07-29T06:18:25.822Z,18.40
2022-07-29T06:21:12.777Z,18.50
2022-07-29T06:23:59.597Z,18.60
2022-07-29T06:26:47.668Z,18.70
2022-07-29T06:29:36.760Z,18.80
2022-07-29T06:32:23.843Z,18.80
2022-07-29T06:38:31.153Z,18.80
2022-07-29T06:41:21.025Z,18.80
2022-07-29T06:44:07.826Z,18.90
2022-07-29T06:46:55.768Z,19.00
2022-07-29T06:49:42.592Z,19.20
2022-07-29T06:52:29.418Z,19.30
2022-07-29T06:55:24.675Z,19.50
2022-07-29T06:58:12.216Z,19.70
2022-07-29T07:01:01.750Z,19.80
2022-07-29T07:03:48.928Z,19.90
2022-07-29T07:06:36.321Z,19.90
2022-07-29T07:09:23.162Z,19.90
2022-07-29T07:12:10.187Z,19.90
2022-07-29T07:14:56.936Z,19.90
2022-07-29T07:17:43.965Z,20.00
2022-07-29T07:20:31.348Z,20.10
2022-07-29T07:23:18.255Z,20.20
2022-07-29T07:26:06.812Z,20.20
2022-07-29T07:28:53.713Z,20.30
2022-07-29T07:31:40.547Z,20.40
2022-07-29T07:34:28.269Z,20.60
2022-07-29T07:37:16.654Z,20.70
2022-07-29T07:40:05.451Z,20.90
2022-07-29T07:42:52.538Z,21.10
2022-07-29T07:45:41.152Z,21.30
2022-07-29T07:48:28.040Z,21.40
2022-07-29T07:51:15.183Z,21.50
2022-07-29T07:54:01.993Z,21.70
2022-07-29T07:56:52.291Z,21.50
2022-07-29T07:59:40.816Z,21.30
2022-07-29T08:02:27.874Z,21.10
2022-07-29T08:05:18.031Z,21.10
2022-07-29T08:08:05.328Z,21.20
2022-07-29T08:10:56.336Z,21.20
2022-07-29T08:13:43.911Z,21.20
2022-07-29T08:16:30.778Z,21.10
2022-07-29T08:19:17.679Z,21.10
2022-07-29T08:22:04.464Z,21.10
2022-07-29T08:24:55.711Z,21.20
2022-07-29T08:27:44.108Z,21.40
2022-07-29T08:30:31.393Z,21.50
2022-07-29T08:33:19.045Z,21.70
2022-07-29T08:36:06.235Z,21.80
2022-07-29T08:38:53.511Z,21.80
2022-07-29T08:41:40.521Z,21.70
2022-07-29T08:44:43.672Z,21.70
2022-07-29T08:47:31.026Z,21.70
2022-07-29T08:50:17.812Z,21.70
2022-07-29T08:53:05.923Z,21.80
2022-07-29T08:55:53.759Z,21.90
2022-07-29T08:58:41.004Z,21.90
2022-07-29T09:01:35.971Z,22.00
2022-07-29T09:04:33.105Z,22.20
2022-07-29T09:07:20.515Z,22.40
2022-07-29T09:10:07.963Z,22.50
2022-07-29T09:12:58.409Z,22.50
2022-07-29T09:15:46.057Z,22.40
2022-07-29T09:18:39.003Z,22.40
2022-07-29T09:21:44.335Z,22.30
2022-07-29T09:24:43.190Z,22.20
2022-07-29T09:27:30.126Z,22.20
2022-07-29T09:30:25.541Z,22.00
2022-07-29T09:33:19.100Z,21.90
2022-07-29T09:36:07.317Z,21.90
2022-07-29T09:39:04.141Z,21.90
2022-07-29T09:41:56.344Z,22.00
2022-07-29T09:44:45.218Z,22.00
2022-07-29T09:48:01.460Z,22.10
2022-07-29T09:50:52.108Z,22.20
2022-07-29T09:53:40.797Z,22.30
2022-07-29T09:56:43.796Z,22.30
2022-07-29T09:59:30.880Z,22.30
2022-07-29T10:02:23.526Z,22.40
2022-07-29T10:05:25.186Z,22.60
2022-07-29T10:08:16.133Z,22.80
2022-07-29T10:11:14.875Z,23.10
2022-07-29T10:14:04.634Z,23.40
2022-07-29T10:16:51.610Z,23.60
2022-07-29T10:19:39.423Z,23.90
2022-07-29T10:22:50.796Z,24.20
2022-07-29T10:25:33.468Z,24.40
2022-07-29T10:28:20.268Z,24.60
2022-07-29T10:31:09.430Z,24.70
2022-07-29T10:34:06.773Z,24.80
2022-07-29T10:37:02.737Z,24.80
2022-07-29T10:40:28.041Z,24.80
2022-07-29T10:43:20.615Z,25.20
2022-07-29T10:46:08.775Z,25.70
2022-07-29T10:49:19.769Z,26.20
2022-07-29T10:52:10.702Z,26.70
2022-07-29T10:54:59.610Z,26.90
2022-07-29T10:58:17.981Z,27.30
2022-07-29T11:01:37.299Z,27.50
2022-07-29T11:04:44.715Z,27.70
2022-07-29T11:07:42.661Z,27.70
2022-07-29T11:10:33.078Z,27.70
2022-07-29T11:13:44.725Z,27.60
2022-07-29T11:17:02.037Z,27.60
2022-07-29T11:19:52.266Z,27.50
2022-07-29T11:22:45.844Z,27.20
2022-07-29T11:25:43.141Z,26.90
2022-07-29T11:29:04.689Z,26.70
2022-07-29T11:31:56.773Z,26.40
2022-07-29T11:34:43.879Z,26.30
2022-07-29T11:37:31.090Z,26.40
2022-07-29T11:40:20.111Z,26.50
2022-07-29T11:43:08.368Z,26.80
2022-07-29T11:45:55.178Z,27.20
2022-07-29T11:48:45.751Z,27.40
2022-07-29T11:51:33.281Z,27.50
2022-07-29T11:54:27.494Z,27.50
2022-07-29T11:57:16.964Z,27.30
2022-07-29T12:00:12.323Z,27.10
2022-07-29T12:03:04.039Z,26.70
2022-07-29T12:05:52.048Z,26.30
2022-07-29T12:08:43.512Z,26.00
2022-07-29T12:11:30.628Z,25.80
2022-07-29T12:14:31.917Z,25.80
2022-07-29T12:17:30.847Z,25.80
2022-07-29T12:20:27.504Z,25.80
2022-07-29T12:23:16.173Z,25.70
2022-07-29T12:26:11.138Z,25.50
2022-07-29T12:29:20.396Z,25.40
2022-07-29T12:32:20.828Z,25.40
2022-07-29T12:35:11.047Z,25.60
2022-07-29T12:37:58.955Z,25.60
2022-07-29T12:40:47.668Z,25.60
2022-07-29T12:43:34.523Z,25.60
2022-07-29T12:46:21.820Z,25.40
2022-07-29T12:49:08.692Z,25.30
2022-07-29T12:51:57.036Z,25.20
2022-07-29T12:54:53.073Z,25.10
2022-07-29T12:57:51.883Z,25.00
2022-07-29T13:00:38.871Z,25.00
2022-07-29T13:03:25.792Z,25.00
2022-07-29T13:06:29.386Z,25.00
2022-07-29T13:09:23.368Z,24.90
2022-07-29T13:12:12.851Z,24.90
2022-07-29T13:14:59.733Z,24.80
2022-07-29T13:17:47.930Z,24.80
2022-07-29T13:20:35.230Z,24.60
2022-07-29T13:23:22.316Z,24.50
2022-07-29T13:26:11.175Z,24.40
2022-07-29T13:28:58.239Z,24.30
2022-07-29T13:31:45.218Z,24.20
2022-07-29T13:34:32.067Z,24.10
2022-07-29T13:37:19.976Z,24.00
2022-07-29T13:40:10.889Z,23.90
2022-07-29T13:42:57.808Z,23.80
2022-07-29T13:45:44.704Z,23.70
2022-07-29T13:48:31.562Z,23.60
2022-07-29T13:51:18.344Z,23.60
2022-07-29T13:54:05.626Z,23.60
2022-07-29T13:56:52.709Z,23.50
2022-07-29T13:59:40.905Z,23.50
2022-07-29T14:02:27.700Z,23.50
2022-07-29T14:05:14.555Z,23.40
2022-07-29T14:08:01.371Z,23.40
2022-07-29T14:10:48.239Z,23.40
2022-07-29T14:13:38.246Z,23.40
2022-07-29T14:16:25.186Z,23.40
2022-07-29T14:19:12.241Z,23.40
2022-07-29T14:21:59.419Z,23.40
2022-07-29T14:24:46.691Z,23.40
2022-07-29T14:27:38.061Z,23.40
2022-07-29T14:30:25.413Z,23.40
2022-07-29T14:33:12.268Z,23.50
2022-07-29T14:36:01.227Z,23.50
2022-07-29T14:38:48.222Z,23.40
2022-07-29T14:41:35.108Z,23.40
2022-07-29T14:44:21.900Z,23.30
2022-07-29T14:47:09.810Z,23.30
2022-07-29T14:49:56.653Z,23.30
2022-07-29T14:52:43.962Z,23.30
2022-07-29T14:55:30.811Z,23.40
2022-07-29T14:58:17.585Z,23.40
2022-07-29T15:01:04.618Z,23.30
2022-07-29T15:03:55.704Z,23.40
2022-07-29T15:06:44.938Z,23.40
2022-07-29T15:09:31.856Z,23.50
2022-07-29T15:12:23.177Z,23.60
2022-07-29T15:15:10.212Z,23.60
2022-07-29T15:17:57.105Z,23.60
2022-07-29T15:20:45.964Z,23.60
2022-07-29T15:23:32.931Z,23.60
2022-07-29T15:26:20.095Z,23.60
2022-07-29T15:29:06.896Z,23.60
2022-07-29T15:31:53.730Z,23.70
2022-07-29T15:34:41.210Z,23.60
2022-07-29T15:37:29.356Z,23.60
2022-07-29T15:40:38.825Z,23.70
2022-07-29T15:43:26.492Z,23.70
2022-07-29T15:46:36.872Z,23.70
2022-07-29T15:49:23.741Z,23.60
2022-07-29T15:52:11.478Z,23.50
2022-07-29T15:54:59.293Z,23.50
2022-07-29T15:57:46.193Z,23.40
2022-07-29T16:00:33.862Z,23.40
2022-07-29T16:03:21.011Z,23.40
2022-07-29T16:06:07.816Z,23.40
2022-07-29T16:08:55.884Z,23.40
2022-07-29T16:11:43.179Z,23.40
2022-07-29T16:14:30.107Z,23.40
2022-07-29T16:17:17.804Z,23.50
2022-07-29T16:20:05.960Z,23.50
2022-07-29T16:22:52.732Z,23.50
2022-07-29T16:25:59.134Z,23.50
2022-07-29T16:28:46.674Z,23.40
2022-07-29T16:31:34.084Z,23.40
2022-07-29T16:34:20.960Z,23.30
2022-07-29T16:37:07.813Z,23.30
2022-07-29T16:39:54.593Z,23.20
2022-07-29T16:42:47.027Z,23.10
2022-07-29T16:45:41.837Z,23.00
2022-07-29T16:48:32.619Z,23.10
2022-07-29T16:51:19.439Z,23.10
2022-07-29T16:54:06.547Z,23.10
2022-07-29T16:56:53.334Z,23.10
2022-07-29T16:59:43.617Z,23.20
2022-07-29T17:02:30.705Z,23.20
2022-07-29T17:05:17.637Z,23.30
2022-07-29T17:08:04.508Z,23.30
2022-07-29T17:10:51.467Z,23.50
2022-07-29T17:13:38.274Z,23.60
2022-07-29T17:16:29.056Z,23.60
2022-07-29T17:19:16.000Z,23.80
2022-07-29T17:22:12.614Z,23.90
2022-07-29T17:25:03.680Z,24.10
2022-07-29T17:27:50.885Z,24.10
2022-07-29T17:30:37.681Z,24.00
2022-07-29T17:33:24.497Z,23.90
2022-07-29T17:36:29.382Z,23.80
2022-07-29T17:39:16.944Z,23.70
2022-07-29T17:42:04.188Z,23.60
2022-07-29T17:44:51.050Z,23.60
2022-07-29T17:47:38.398Z,23.60
2022-07-29T17:50:25.372Z,23.50
2022-07-29T17:53:12.347Z,23.30
2022-07-29T17:56:04.289Z,23.20
2022-07-29T17:58:52.012Z,23.10
2022-07-29T18:01:41.381Z,23.10
2022-07-29T18:04:29.164Z,23.10
2022-07-29T18:07:15.923Z,23.00
2022-07-29T18:10:02.835Z,22.90
2022-07-29T18:12:49.763Z,22.70
2022-07-29T18:15:36.536Z,22.60
2022-07-29T18:18:23.377Z,22.40
2022-07-29T18:21:10.322Z,22.30
2022-07-29T18:23:57.135Z,22.20
2022-07-29T18:26:43.908Z,22.10
2022-07-29T18:29:30.872Z,22.10
2022-07-29T18:32:17.710Z,22.00
2022-07-29T18:35:05.870Z,21.90
2022-07-29T18:38:01.608Z,21.90
2022-07-29T18:40:49.669Z,21.80
2022-07-29T18:43:36.644Z,21.70
2022-07-29T18:46:23.606Z,21.70
2022-07-29T18:49:13.797Z,21.60
2022-07-29T18:52:00.786Z,21.50
2022-07-29T18:54:47.578Z,21.50
2022-07-29T18:57:54.744Z,21.50
2022-07-29T19:00:41.632Z,21.50
2022-07-29T19:03:28.495Z,21.40
2022-07-29T19:06:15.458Z,21.40
2022-07-29T19:09:02.285Z,21.40
2022-07-29T19:11:53.007Z,21.30
2022-07-29T19:14:42.387Z,21.20
2022-07-29T19:17:29.171Z,21.10
2022-07-29T19:20:16.305Z,21.00
2022-07-29T19:23:03.586Z,20.80
2022-07-29T19:25:54.032Z,20.70
2022-07-29T19:28:41.027Z,20.50
2022-07-29T19:31:35.575Z,20.40
2022-07-29T19:34:22.406Z,20.30
2022-07-29T19:37:09.213Z,20.20
2022-07-29T19:39:55.998Z,20.10
2022-07-29T19:42:43.591Z,20.10
2022-07-29T19:45:30.520Z,20.00
2022-07-29T19:48:17.283Z,19.90
2022-07-29T19:51:04.192Z,19.90
2022-07-29T19:53:51.622Z,19.80
2022-07-29T19:56:40.122Z,19.70
2022-07-29T19:59:29.505Z,19.60
2022-07-29T20:02:16.546Z,19.60
2022-07-29T20:05:04.237Z,19.50
2022-07-29T20:07:53.088Z,19.40
2022-07-29T20:10:39.952Z,19.40
2022-07-29T20:13:26.785Z,19.30
2022-07-29T20:16:13.786Z,19.20
2022-07-29T20:19:00.579Z,19.20
2022-07-29T20:21:47.459Z,19.20
2022-07-29T20:24:34.288Z,19.20
2022-07-29T20:27:21.185Z,19.10
2022-07-29T20:30:08.921Z,19.10
2022-07-29T20:32:57.967Z,19.00
2022-07-29T20:35:44.790Z,19.00
2022-07-29T20:38:31.850Z,18.90
2022-07-29T20:41:18.669Z,18.80
2022-07-29T20:44:06.757Z,18.60
2022-07-29T20:46:53.556Z,18.60
2022-07-29T20:49:40.575Z,18.40
2022-07-29T20:52:29.458Z,18.30
2022-07-29T20:55:16.343Z,18.20
2022-07-29T20:58:03.513Z,18.10
2022-07-29T21:00:50.469Z,18.00
2022-07-29T21:03:37.672Z,17.90
2022-07-29T21:06:24.495Z,17.80
2022-07-29T21:09:11.390Z,17.80
2022-07-29T21:11:59.900Z,17.70
2022-07-29T21:14:47.857Z,17.70
2022-07-29T21:17:36.136Z,17.70
2022-07-29T21:20:22.960Z,17.70
2022-07-29T21:23:09.776Z,17.70
2022-07-29T21:25:57.249Z,17.70
2022-07-29T21:28:44.140Z,17.80
2022-07-29T21:31:31.230Z,17.80
2022-07-29T21:34:18.149Z,17.80
2022-07-29T21:37:05.092Z,17.70
2022-07-29T21:39:53.878Z,17.70
2022-07-29T21:42:41.041Z,17.70
2022-07-29T21:45:28.100Z,17.60
2022-07-29T21:48:14.906Z,17.60
2022-07-29T21:51:02.261Z,17.60
2022-07-29T21:53:50.544Z,17.50
2022-07-29T21:56:39.895Z,17.50
2022-07-29T21:59:26.807Z,17.50
2022-07-29T22:02:13.692Z,17.50
2022-07-29T22:05:00.461Z,17.50
2022-07-29T22:07:56.025Z,17.40
2022-07-29T22:10:43.826Z,17.40
2022-07-29T22:13:30.620Z,17.30
2022-07-29T22:16:17.654Z,17.30
2022-07-29T22:19:04.537Z,17.20
2022-07-29T22:21:51.333Z,17.10
2022-07-29T22:24:38.823Z,17.10
2022-07-29T22:27:25.812Z,17.00
2022-07-29T22:30:13.252Z,17.00
2022-07-29T22:33:00.075Z,16.90
2022-07-29T22:35:48.523Z,16.90
2022-07-29T22:38:35.992Z,16.90
2022-07-29T22:41:22.920Z,16.90
2022-07-29T22:44:09.717Z,17.00
2022-07-29T22:46:56.970Z,17.00
2022-07-29T22:49:44.123Z,17.00
2022-07-29T22:52:30.925Z,17.00
2022-07-29T22:55:17.723Z,17.00
2022-07-29T22:58:04.580Z,17.00
2022-07-29T23:00:51.450Z,17.00
2022-07-29T23:03:39.324Z,17.00
2022-07-29T23:06:26.155Z,17.10
2022-07-29T23:09:13.008Z,17.30
2022-07-29T23:11:59.784Z,17.40
2022-07-29T23:14:46.848Z,17.40
2022-07-29T23:17:36.630Z,17.30
2022-07-29T23:20:23.783Z,17.30
2022-07-29T23:23:11.012Z,17.30
2022-07-29T23:25:57.861Z,17.30
2022-07-29T23:28:45.455Z,17.20
2022-07-29T23:31:32.393Z,17.10
2022-07-29T23:34:19.204Z,17.00
2022-07-29T23:37:06.208Z,17.00
2022-07-29T23:39:52.973Z,16.90
2022-07-29T23:42:39.947Z,16.90
2022-07-29T23:45:32.505Z,16.80
2022-07-29T23:48:32.036Z,16.80
2022-07-29T23:51:19.152Z,16.90
2022-07-29T23:54:06.016Z,16.90
2022-07-29T23:56:52.788Z,16.90
2022-07-29T23:59:39.717Z,17.00
